Time;durP1;ratioP1;P1;durP2;ratioP2;P2;SDS_P1;SDS_P2;PMS_P1;PMS_P2;Temp;Humidity;BMP_temperature;BMP_pressure;BME280_temperature;BME280_humidity;BME280_pressure;Samples;Min_cycle;Max_cycle;Signal;HPM_P1;HPM_P2
2021/12/18 00:01:04;;;;;;;8.00;7.40;;;;;;;4.15;94.71;99939.97;5112558;28;20444;-84
2021/12/18 00:03:30;;;;;;;8.47;7.60;;;;;;;4.11;94.24;99924.63;5112140;28;20194;-82
2021/12/18 00:05:58;;;;;;;9.10;8.40;;;;;;;4.17;93.48;99935.38;5113006;28;20190;-83
2021/12/18 00:08:26;;;;;;;9.27;8.43;;;;;;;4.18;93.03;99934.44;5113151;28;20436;-83
2021/12/18 00:10:55;;;;;;;10.07;8.63;;;;;;;4.20;94.08;99937.72;5116327;28;20218;-82
2021/12/18 00:13:22;;;;;;;10.47;8.67;;;;;;;4.20;94.01;99937.72;5116527;28;20201;-83
2021/12/18 00:15:49;;;;;;;12.40;8.53;;;;;;;4.24;93.86;99940.88;5116487;28;20190;-82
2021/12/18 00:18:16;;;;;;;8.63;7.93;;;;;;;4.24;94.04;99952.25;5116208;28;20497;-84
2021/12/18 00:20:43;;;;;;;11.53;8.37;;;;;;;4.22;93.97;99951.56;5116159;28;20248;-84
2021/12/18 00:23:10;;;;;;;8.10;7.37;;;;;;;4.20;93.61;99948.25;5116329;28;20191;-83
2021/12/18 00:25:38;;;;;;;9.67;8.47;;;;;;;4.23;94.41;99942.72;5115954;28;20230;-83
2021/12/18 00:28:05;;;;;;;10.30;9.40;;;;;;;4.25;94.45;99951.25;5115593;28;20939;-83
2021/12/18 00:30:33;;;;;;;9.90;9.10;;;;;;;4.26;93.70;99946.84;5115621;28;20997;-82
2021/12/18 00:33:00;;;;;;;10.70;8.87;;;;;;;4.24;94.01;99952.25;5116128;28;20432;-83
2021/12/18 00:35:27;;;;;;;10.40;9.23;;;;;;;4.13;95.14;99941.91;5115873;28;20267;-83
2021/12/18 00:37:54;;;;;;;10.70;9.70;;;;;;;4.06;95.78;99948.72;5115760;28;20251;-84
2021/12/18 00:40:24;;;;;;;12.37;11.17;;;;;;;4.01;94.86;99945.69;5115789;28;20255;-84
2021/12/18 00:42:58;;;;;;;12.27;11.00;;;;;;;3.95;95.21;99941.00;5116151;28;20222;-82
2021/12/18 00:45:25;;;;;;;11.27;10.17;;;;;;;3.89;94.89;99946.00;5115422;28;20192;-83
2021/12/18 00:47:52;;;;;;;10.67;9.80;;;;;;;3.82;95.51;99940.50;5115585;28;20436;-82
2021/12/18 00:50:22;;;;;;;10.37;9.43;;;;;;;3.86;97.02;99941.88;5115438;28;20194;-82
2021/12/18 00:52:49;;;;;;;11.53;8.77;;;;;;;3.91;96.54;99947.53;5115315;28;20474;-82
2021/12/18 00:55:16;;;;;;;9.63;8.77;;;;;;;3.86;96.17;99944.50;5115690;28;20447;-82
2021/12/18 00:57:44;;;;;;;10.40;9.37;;;;;;;3.83;95.89;99938.69;5115825;28;20186;-84
2021/12/18 01:00:16;;;;;;;11.63;9.60;;;;;;;3.87;96.10;99948.78;5115703;28;20440;-82
2021/12/18 01:02:44;;;;;;;11.10;10.00;;;;;;;3.88;96.43;99942.53;5115074;28;20182;-83
2021/12/18 01:05:11;;;;;;;10.70;9.70;;;;;;;3.97;96.57;99941.69;5115875;28;20497;-83
2021/12/18 01:07:39;;;;;;;10.73;9.63;;;;;;;4.03;97.21;99941.13;5116120;28;20414;-83
2021/12/18 01:10:20;;;;;;;13.30;10.30;;;;;;;4.08;96.95;99938.88;5114921;28;20190;-83
2021/12/18 01:12:49;;;;;;;11.37;9.70;;;;;;;4.09;96.26;99932.66;5116483;28;20448;-83
2021/12/18 01:15:22;;;;;;;11.70;10.50;;;;;;;4.11;95.84;99922.84;5114874;28;20432;-83
2021/12/18 01:23:18;;;;;;;15.53;13.00;;;;;;;3.88;96.05;99926.78;5115443;28;20403;-83
2021/12/18 01:25:44;;;;;;;12.47;10.90;;;;;;;3.76;96.85;99927.91;5115586;28;20218;-83
2021/12/18 01:28:11;;;;;;;14.63;11.30;;;;;;;3.76;97.35;99921.84;5114590;28;20939;-82
2021/12/18 01:30:39;;;;;;;13.77;10.90;;;;;;;3.76;98.01;99921.84;5114995;28;20497;-82
2021/12/18 01:33:06;;;;;;;11.60;10.43;;;;;;;3.73;97.43;99922.97;5114842;28;20428;-82
2021/12/18 01:35:34;;;;;;;14.30;10.00;;;;;;;3.81;97.59;99915.22;5114718;28;20432;-82
2021/12/18 01:38:01;;;;;;;13.93;11.73;;;;;;;3.87;98.13;99922.50;5114373;28;20737;-82
2021/12/18 01:40:27;;;;;;;12.17;10.93;;;;;;;3.91;97.16;99921.25;5114711;28;20458;-82
2021/12/18 01:46:06;;;;;;;15.47;12.43;;;;;;;3.92;96.10;99928.16;5056875;28;20427;-83
2021/12/18 01:51:22;;;;;;;13.10;11.77;;;;;;;3.93;96.18;99910.59;5114526;28;20585;-80
2021/12/18 01:53:53;;;;;;;16.97;11.60;;;;;;;4.03;97.35;99917.47;5114781;28;20191;-80
2021/12/18 01:56:26;;;;;;;13.30;11.97;;;;;;;4.08;96.88;99915.22;5114042;28;20719;-80
2021/12/18 01:58:53;;;;;;;13.27;11.87;;;;;;;4.12;97.26;99916.59;5114506;28;20473;-80
2021/12/18 02:01:21;;;;;;;16.40;11.40;;;;;;;4.16;96.48;99919.75;5114227;28;20958;-80
2021/12/18 02:03:48;;;;;;;13.90;11.43;;;;;;;4.16;96.29;99915.34;5114182;28;20186;-79
2021/12/18 02:06:15;;;;;;;12.70;11.50;;;;;;;4.16;95.77;99917.13;5113885;28;20194;-80
2021/12/18 02:08:44;;;;;;;12.27;10.97;;;;;;;4.08;96.36;99917.84;5114543;28;20432;-80
2021/12/18 02:11:25;;;;;;;13.93;11.60;;;;;;;4.08;96.87;99904.72;5113983;28;20471;-80
2021/12/18 02:19:36;;;;;;;19.53;14.03;;;;;;;3.94;96.30;99894.69;5114006;28;20182;-82
2021/12/18 02:22:04;;;;;;;13.30;11.90;;;;;;;4.07;96.79;99905.69;5114241;28;20190;-82
2021/12/18 02:24:33;;;;;;;13.33;11.53;;;;;;;4.12;97.06;99911.34;5113630;28;20939;-83
2021/12/18 02:26:59;;;;;;;12.77;11.07;;;;;;;4.12;96.00;99916.59;5114440;28;20262;-82
2021/12/18 02:29:30;;;;;;;12.20;10.40;;;;;;;4.13;96.47;99907.72;5137771;28;20251;-82
2021/12/18 02:31:56;;;;;;;12.90;10.73;;;;;;;4.17;95.93;99910.91;5139279;28;20224;-81
2021/12/18 02:34:27;;;;;;;13.37;11.37;;;;;;;4.18;95.84;99900.25;5139156;28;20420;-81
2021/12/18 02:37:00;;;;;;;12.70;10.43;;;;;;;4.20;95.19;99905.34;5123895;28;20642;-81
2021/12/18 02:39:42;;;;;;;15.97;11.07;;;;;;;4.20;94.68;99908.81;5113340;28;20252;-82
2021/12/18 02:42:12;;;;;;;14.27;11.23;;;;;;;4.19;94.77;99912.44;5113323;28;20197;-83
2021/12/18 02:44:40;;;;;;;13.53;12.00;;;;;;;4.17;94.68;99905.66;5113966;28;20206;-83
2021/12/18 02:47:08;;;;;;;13.80;11.63;;;;;;;4.13;94.50;99907.72;5113766;28;20194;-83
2021/12/18 02:49:34;;;;;;;19.70;12.37;;;;;;;4.11;94.44;99901.81;5113032;28;20199;-83
2021/12/18 02:52:01;;;;;;;17.13;12.43;;;;;;;4.11;94.36;99908.84;5113768;28;20471;-82
2021/12/18 02:54:29;;;;;;;18.47;11.70;;;;;;;4.07;94.46;99908.31;5113277;28;20190;-83
2021/12/18 02:56:56;;;;;;;19.93;13.03;;;;;;;4.01;94.24;99898.38;5114117;28;20247;-83
2021/12/18 02:59:24;;;;;;;18.87;12.60;;;;;;;4.02;94.44;99915.81;5112940;28;21004;-84
2021/12/18 03:01:51;;;;;;;16.73;11.83;;;;;;;4.02;95.25;99905.31;5113268;28;20535;-83
2021/12/18 03:04:22;;;;;;;21.53;11.87;;;;;;;4.00;96.36;99915.13;5113230;28;20432;-83
2021/12/18 03:06:52;;;;;;;22.10;13.57;;;;;;;4.02;96.87;99907.09;5112859;28;20523;-83
2021/12/18 03:09:50;;;;;;;28.53;15.03;;;;;;;4.02;96.67;99918.44;5113392;28;20489;-83
2021/12/18 03:23:30;;;;;;;18.63;12.47;;;;;;;4.05;94.77;99914.69;5098543;28;20194;-82
2021/12/18 03:25:59;;;;;;;15.63;11.50;;;;;;;4.05;95.22;99920.75;5113436;28;20847;-81
2021/12/18 03:28:28;;;;;;;15.40;11.87;;;;;;;4.06;96.29;99925.06;5113392;28;20489;-81
2021/12/18 03:30:56;;;;;;;14.80;11.33;;;;;;;4.04;96.10;99923.56;5112802;28;20256;-80
2021/12/18 03:33:23;;;;;;;19.20;11.33;;;;;;;4.09;96.42;99919.50;5112704;28;20570;-82
2021/12/18 03:35:50;;;;;;;14.40;10.77;;;;;;;4.08;95.81;99920.47;5112617;28;20198;-82
2021/12/18 03:38:17;;;;;;;13.23;10.83;;;;;;;4.09;95.86;99919.50;5113065;28;20250;-81
2021/12/18 03:40:44;;;;;;;12.60;10.30;;;;;;;4.12;96.38;99919.22;5112883;28;20773;-82
2021/12/18 03:43:10;;;;;;;15.43;13.83;;;;;;;4.01;96.09;99906.25;5115020;28;20333;-82
2021/12/18 03:45:38;;;;;;;14.53;12.57;;;;;;;4.15;95.73;99918.94;5116959;28;20443;-82
2021/12/18 03:48:05;;;;;;;18.13;12.00;;;;;;;4.16;96.10;99920.59;5116575;28;20194;-82
2021/12/18 03:50:32;;;;;;;14.00;11.10;;;;;;;4.17;95.93;99926.69;5116496;28;20190;-83
2021/12/18 03:52:59;;;;;;;13.40;10.87;;;;;;;4.16;94.98;99933.75;5116394;28;20236;-82
2021/12/18 03:55:26;;;;;;;13.97;11.13;;;;;;;4.17;95.95;99931.94;5116815;28;20753;-82
2021/12/18 03:57:53;;;;;;;14.63;10.83;;;;;;;4.13;95.87;99936.66;5116404;28;20689;-79
2021/12/18 04:00:20;;;;;;;13.23;11.00;;;;;;;4.15;95.61;99939.97;5116377;28;20568;-79
2021/12/18 04:02:48;;;;;;;12.77;10.67;;;;;;;4.16;95.58;99946.88;5116298;28;20830;-79
2021/12/18 04:05:15;;;;;;;17.43;10.30;;;;;;;4.18;95.51;99933.59;5116351;28;20190;-79
2021/12/18 04:07:44;;;;;;;11.73;9.93;;;;;;;4.24;95.53;99946.16;5116186;28;20654;-81
2021/12/18 04:10:14;;;;;;;10.63;9.57;;;;;;;4.24;94.56;99944.34;5116446;28;20226;-80
2021/12/18 04:12:41;;;;;;;10.53;9.47;;;;;;;4.26;95.23;99942.44;5116375;28;20218;-81
2021/12/18 04:15:08;;;;;;;10.00;9.07;;;;;;;4.28;95.59;99948.34;5116046;28;20653;-82
2021/12/18 04:17:35;;;;;;;12.13;10.00;;;;;;;4.30;94.62;99941.13;5116662;28;20186;-82
2021/12/18 04:20:04;;;;;;;9.90;8.93;;;;;;;4.33;94.54;99947.94;5115876;28;20497;-82
2021/12/18 04:22:31;;;;;;;10.57;9.57;;;;;;;4.33;93.84;99948.75;5116627;28;20493;-83
2021/12/18 04:24:57;;;;;;;9.97;9.03;;;;;;;4.35;93.20;99951.22;5115984;28;20216;-82
2021/12/18 04:27:24;;;;;;;10.03;8.77;;;;;;;4.37;93.39;99949.28;5116686;28;20723;-83
2021/12/18 04:29:51;;;;;;;10.67;9.57;;;;;;;4.38;93.41;99949.13;5116403;28;20252;-80
2021/12/18 04:32:17;;;;;;;10.07;9.27;;;;;;;4.35;93.18;99948.59;5115923;28;20249;-80
2021/12/18 04:34:44;;;;;;;9.83;8.93;;;;;;;4.37;92.98;99959.81;5115608;28;20212;-81
2021/12/18 04:37:12;;;;;;;10.03;9.03;;;;;;;4.41;93.24;99961.19;5115922;28;20274;-82
2021/12/18 04:39:39;;;;;;;10.33;9.23;;;;;;;4.42;93.18;99962.84;5116030;28;20247;-80
2021/12/18 04:42:06;;;;;;;9.90;9.00;;;;;;;4.40;93.42;99962.97;5115779;28;20504;-81
2021/12/18 04:44:32;;;;;;;10.70;9.73;;;;;;;4.41;93.16;99966.44;5115420;28;20576;-82
2021/12/18 04:46:59;;;;;;;11.50;10.30;;;;;;;4.39;93.17;99969.22;5115396;28;20436;-82
2021/12/18 04:49:26;;;;;;;10.33;9.40;;;;;;;4.41;93.29;99969.06;5115908;28;20633;-80
2021/12/18 04:51:53;;;;;;;12.80;10.63;;;;;;;4.39;93.66;99974.47;5115164;28;20476;-77
2021/12/18 04:54:21;;;;;;;13.60;10.23;;;;;;;4.39;93.25;99969.22;5115652;28;20190;-78
2021/12/18 04:56:48;;;;;;;10.67;9.57;;;;;;;4.41;93.44;99983.03;5115724;28;20635;-78
2021/12/18 04:59:15;;;;;;;10.60;9.60;;;;;;;4.39;93.23;99989.41;5115424;28;20186;-78
2021/12/18 05:01:41;;;;;;;11.47;9.30;;;;;;;4.38;92.90;99988.56;5115095;28;20194;-79
2021/12/18 05:04:11;;;;;;;11.13;9.30;;;;;;;4.39;92.49;99995.50;5115554;28;20501;-79
2021/12/18 05:06:40;;;;;;;13.07;10.67;;;;;;;4.45;93.00;99994.91;5115463;28;20191;-80
2021/12/18 05:09:07;;;;;;;12.17;9.87;;;;;;;4.52;93.09;100009.16;5114893;28;20653;-78
2021/12/18 05:11:35;;;;;;;11.93;10.57;;;;;;;4.55;92.62;100011.50;5115733;28;20259;-82
2021/12/18 05:14:02;;;;;;;14.70;11.40;;;;;;;4.54;91.80;100014.28;5114809;28;20195;-82
2021/12/18 05:16:29;;;;;;;11.13;9.70;;;;;;;4.47;91.92;100027.19;5115444;28;20658;-83
2021/12/18 05:18:56;;;;;;;12.13;10.37;;;;;;;4.42;92.29;100026.75;5114713;28;20555;-83
2021/12/18 05:21:22;;;;;;;9.77;8.80;;;;;;;4.42;92.81;100026.75;5115520;28;20547;-83
2021/12/18 05:23:49;;;;;;;12.47;10.93;;;;;;;4.40;93.04;100036.59;5114878;28;20581;-79
2021/12/18 05:26:16;;;;;;;10.43;9.53;;;;;;;4.40;94.01;100041.88;5115169;28;20689;-82
2021/12/18 05:28:44;;;;;;;13.03;11.70;;;;;;;4.40;93.70;100047.13;5114855;28;20190;-80
2021/12/18 05:31:13;;;;;;;16.53;13.33;;;;;;;4.43;93.35;100049.47;5114817;28;20202;-78
2021/12/18 05:33:40;;;;;;;15.00;12.57;;;;;;;4.47;93.70;100052.63;5114612;28;20214;-78
2021/12/18 05:36:24;;;;;;;15.13;12.53;;;;;;;4.47;93.44;100064.00;5114456;28;20657;-79
2021/12/18 05:38:51;;;;;;;15.17;12.27;;;;;;;4.51;93.32;100054.84;5114408;28;20182;-78
2021/12/18 05:41:18;;;;;;;14.10;12.20;;;;;;;4.55;93.65;100060.63;5114468;28;20260;-79
2021/12/18 05:43:46;;;;;;;13.47;11.60;;;;;;;4.59;93.13;100073.38;5114632;28;20256;-77
2021/12/18 05:46:13;;;;;;;16.30;13.37;;;;;;;4.62;92.86;100075.69;5114496;28;20190;-76
2021/12/18 05:48:39;;;;;;;14.47;13.10;;;;;;;4.63;92.90;100072.13;5114105;28;20194;-80
2021/12/18 05:51:06;;;;;;;16.77;13.50;;;;;;;4.63;92.55;100082.63;5114824;28;20190;-81
2021/12/18 05:53:33;;;;;;;12.70;11.40;;;;;;;4.63;92.72;100087.91;5113889;28;20215;-81
2021/12/18 05:55:59;;;;;;;20.03;13.33;;;;;;;4.65;92.90;100096.47;5114017;28;20190;-81
2021/12/18 05:58:26;;;;;;;14.60;12.23;;;;;;;4.69;93.05;100089.94;5113942;28;20277;-81
2021/12/18 06:00:54;;;;;;;17.77;12.90;;;;;;;4.75;92.86;100091.97;5114708;28;20509;-82
2021/12/18 06:03:21;;;;;;;15.67;12.57;;;;;;;4.70;92.13;100091.59;5113723;28;20252;-81
2021/12/18 06:05:48;;;;;;;14.77;12.30;;;;;;;4.59;92.40;100078.63;5112877;28;20546;-81
2021/12/18 06:08:14;;;;;;;14.80;11.97;;;;;;;4.37;91.81;100084.22;5114170;28;20186;-82
2021/12/18 06:10:41;;;;;;;20.57;14.07;;;;;;;4.03;93.56;100088.31;5114163;28;20249;-81
2021/12/18 06:13:08;;;;;;;18.60;13.73;;;;;;;3.94;94.87;100068.13;5113882;28;20654;-82
2021/12/18 06:15:35;;;;;;;19.60;15.10;;;;;;;3.75;95.39;100077.78;5113616;28;20190;-82
2021/12/18 06:18:03;;;;;;;25.63;16.87;;;;;;;3.58;95.94;100081.97;5113467;28;20681;-79
2021/12/18 06:20:30;;;;;;;18.90;15.80;;;;;;;3.48;97.41;100096.03;5113545;28;20489;-74
2021/12/18 06:22:58;;;;;;;19.33;15.53;;;;;;;3.43;97.60;100093.81;5113312;28;20194;-76
2021/12/18 06:25:24;;;;;;;26.20;19.23;;;;;;;3.45;97.71;100102.41;5113399;28;20440;-75
2021/12/18 06:27:51;;;;;;;27.33;19.97;;;;;;;3.49;98.75;100098.53;5113916;28;20432;-72
2021/12/18 06:30:19;;;;;;;15.43;13.00;;;;;;;3.68;99.01;100097.72;5113258;28;20501;-75
2021/12/18 06:32:46;;;;;;;20.17;13.33;;;;;;;3.84;99.14;100101.44;5113114;28;21002;-76
2021/12/18 06:35:14;;;;;;;14.17;11.90;;;;;;;3.88;98.51;100108.09;5113478;28;20440;-75
2021/12/18 06:37:41;;;;;;;15.33;11.70;;;;;;;3.89;98.56;100101.84;5113193;28;20255;-74
2021/12/18 06:40:09;;;;;;;16.43;12.70;;;;;;;3.98;98.62;100106.31;5114133;28;20468;-75
2021/12/18 06:42:36;;;;;;;17.67;13.47;;;;;;;3.93;98.57;100105.06;5113278;28;20436;-73
2021/12/18 06:45:03;;;;;;;16.37;13.20;;;;;;;4.21;98.94;100120.78;5113254;28;20440;-73
2021/12/18 06:47:30;;;;;;;19.20;13.77;;;;;;;4.38;98.19;100122.69;5113790;28;20505;-73
2021/12/18 06:49:57;;;;;;;12.80;11.33;;;;;;;4.49;97.39;100125.16;5113215;28;20186;-73
2021/12/18 06:52:25;;;;;;;11.23;10.13;;;;;;;4.50;96.40;100128.63;5112746;28;20693;-75
2021/12/18 06:54:52;;;;;;;9.83;8.93;;;;;;;4.40;95.24;100128.66;5109425;28;20255;-75
2021/12/18 06:57:22;;;;;;;10.30;8.90;;;;;;;4.28;94.81;100140.28;5112574;28;20187;-74
2021/12/18 06:59:49;;;;;;;9.77;8.83;;;;;;;4.20;94.94;100137.53;5112875;28;20182;-73
2021/12/18 07:02:15;;;;;;;9.07;8.27;;;;;;;4.07;95.50;100131.75;5109439;28;20187;-72
2021/12/18 07:04:43;;;;;;;8.70;7.93;;;;;;;4.07;96.47;100131.75;5112746;28;20191;-72
2021/12/18 07:07:09;;;;;;;13.53;9.97;;;;;;;3.95;97.04;100148.63;5112678;28;20247;-72
2021/12/18 07:09:37;;;;;;;12.57;10.97;;;;;;;3.87;97.94;100140.59;5111751;28;20195;-72
2021/12/18 07:12:05;;;;;;;10.80;9.70;;;;;;;3.79;98.14;100129.09;5112382;28;20542;-72
2021/12/18 07:14:31;;;;;;;9.83;8.90;;;;;;;3.80;98.35;100134.22;5112370;28;20287;-72
2021/12/18 07:16:58;;;;;;;11.33;9.57;;;;;;;3.65;98.82;100138.22;5112262;28;20191;-73
2021/12/18 07:19:26;;;;;;;12.87;11.33;;;;;;;3.90;100.00;100139.47;5112686;28;20240;-72
2021/12/18 07:21:52;;;;;;;14.37;11.50;;;;;;;3.91;99.02;100139.34;5110944;28;20523;-72
2021/12/18 07:24:19;;;;;;;19.53;14.10;;;;;;;4.00;99.32;100141.13;5110010;28;20440;-74
2021/12/18 07:26:48;;;;;;;14.13;11.87;;;;;;;3.86;98.34;100133.69;5110348;28;20586;-73
2021/12/18 07:29:15;;;;;;;15.60;13.57;;;;;;;3.77;99.26;100150.28;5110105;28;20198;-74
2021/12/18 07:31:42;;;;;;;18.80;13.73;;;;;;;3.82;99.75;100142.81;5109960;28;20669;-73
2021/12/18 07:34:09;;;;;;;16.53;14.03;;;;;;;3.88;99.34;100139.63;5109833;28;20701;-73
2021/12/18 07:36:36;;;;;;;18.63;15.03;;;;;;;3.92;99.62;100148.88;5111328;28;20194;-72
2021/12/18 07:39:04;;;;;;;15.83;12.10;;;;;;;3.86;99.79;100159.97;5112295;28;20558;-72
2021/12/18 07:41:31;;;;;;;15.17;13.23;;;;;;;3.97;99.70;100172.94;5112361;28;20269;-71
2021/12/18 07:43:59;;;;;;;22.30;14.80;;;;;;;3.98;99.15;100179.88;5109174;28;20884;-71
2021/12/18 07:46:26;;;;;;;18.53;14.60;;;;;;;3.95;98.76;100182.78;5112217;28;20432;-71
2021/12/18 07:48:52;;;;;;;22.13;12.87;;;;;;;3.84;98.15;100185.53;5113590;28;20437;-72
2021/12/18 07:51:19;;;;;;;14.37;12.60;;;;;;;3.85;98.42;100189.81;5093540;28;20210;-69
2021/12/18 07:53:46;;;;;;;20.47;14.03;;;;;;;3.81;97.89;100180.56;5092830;28;20770;-70
2021/12/18 07:56:12;;;;;;;14.80;12.43;;;;;;;3.77;98.88;100189.69;5092845;28;20499;-72
2021/12/18 07:58:40;;;;;;;16.60;13.70;;;;;;;3.70;98.22;100200.84;5091592;28;20253;-72
2021/12/18 08:01:08;;;;;;;18.17;13.80;;;;;;;3.76;98.89;100195.88;5091443;28;20955;-68
2021/12/18 08:03:35;;;;;;;30.23;19.13;;;;;;;3.84;99.19;100201.28;5110284;28;20493;-69
2021/12/18 08:06:01;;;;;;;20.10;15.40;;;;;;;3.84;98.17;100201.28;5112215;28;20505;-70
2021/12/18 08:08:28;;;;;;;31.23;20.93;;;;;;;3.90;98.80;100203.38;5112517;28;20194;-72
2021/12/18 08:10:55;;;;;;;20.87;16.07;;;;;;;3.92;98.15;100205.88;5111719;28;20726;-79
2021/12/18 08:13:22;;;;;;;22.77;16.40;;;;;;;3.95;98.79;100213.47;5110244;28;20529;-69
2021/12/18 08:15:49;;;;;;;15.57;13.50;;;;;;;4.05;98.71;100209.88;5111626;28;20244;-71
2021/12/18 08:18:17;;;;;;;21.63;15.07;;;;;;;4.08;98.19;100209.63;5112109;28;20255;-77
2021/12/18 08:20:44;;;;;;;20.93;14.83;;;;;;;4.17;98.32;100221.94;5093684;28;20433;-77
2021/12/18 08:23:10;;;;;;;18.83;14.10;;;;;;;4.21;97.95;100215.44;5111943;28;20252;-72
2021/12/18 08:25:38;;;;;;;23.30;15.60;;;;;;;4.30;96.96;100225.09;5108229;28;20633;-71
2021/12/18 08:28:06;;;;;;;17.63;14.13;;;;;;;4.40;96.85;100228.59;5110282;28;20929;-71
2021/12/18 08:30:35;;;;;;;16.73;13.77;;;;;;;4.50;96.77;100224.13;5113518;28;20493;-72
2021/12/18 08:33:02;;;;;;;16.80;13.17;;;;;;;4.81;98.39;100228.25;5114888;28;20222;-74
2021/12/18 08:35:32;;;;;;;18.47;14.80;;;;;;;5.01;96.33;100224.63;5115415;28;20285;-73
2021/12/18 08:38:00;;;;;;;13.43;11.70;;;;;;;5.04;95.47;100229.59;5115689;28;20282;-73
2021/12/18 08:40:28;;;;;;;11.77;10.67;;;;;;;5.00;94.25;100222.97;5116075;28;20190;-74
2021/12/18 08:42:55;;;;;;;18.03;13.70;;;;;;;5.14;94.17;100225.13;5116099;28;20191;-76
2021/12/18 08:45:22;;;;;;;18.23;13.30;;;;;;;5.09;92.70;100227.38;5111676;28;20194;-76
2021/12/18 08:47:49;;;;;;;17.23;13.50;;;;;;;5.04;92.10;100226.97;5114003;28;20443;-74
2021/12/18 08:50:18;;;;;;;12.77;11.57;;;;;;;5.13;92.45;100228.75;5115247;28;20255;-72
2021/12/18 08:52:46;;;;;;;12.40;11.10;;;;;;;5.40;93.24;100239.28;5115083;28;20733;-74
2021/12/18 08:55:17;;;;;;;19.20;13.20;;;;;;;5.63;93.80;100237.94;5114842;28;20633;-77
2021/12/18 08:57:44;;;;;;;25.67;15.77;;;;;;;5.95;92.28;100237.50;5112515;28;20195;-76
2021/12/18 09:00:16;;;;;;;21.47;12.53;;;;;;;5.98;90.07;100239.03;5094901;28;20244;-73
2021/12/18 09:02:45;;;;;;;14.07;11.50;;;;;;;5.94;88.68;100225.31;5105315;28;20206;-76
2021/12/18 09:05:13;;;;;;;14.83;11.97;;;;;;;6.01;88.26;100247.50;5104976;28;20747;-74
2021/12/18 09:07:40;;;;;;;11.43;10.37;;;;;;;6.01;87.85;100244.00;5111284;28;20203;-73
2021/12/18 09:10:09;;;;;;;13.00;10.07;;;;;;;6.00;87.36;100245.00;5112630;28;20190;-76
2021/12/18 09:12:36;;;;;;;15.23;12.17;;;;;;;6.00;86.86;100245.00;5114634;28;20194;-68
2021/12/18 09:15:04;;;;;;;11.40;10.13;;;;;;;5.98;86.98;100241.66;5114554;28;20218;-74
2021/12/18 09:17:31;;;;;;;10.10;9.30;;;;;;;5.95;86.42;100226.16;5114695;28;20547;-70
2021/12/18 09:19:57;;;;;;;11.10;9.57;;;;;;;5.94;85.85;100237.66;5114885;28;20191;-75
2021/12/18 09:22:24;;;;;;;15.67;13.67;;;;;;;5.95;86.11;100236.72;5115314;28;20190;-75
2021/12/18 09:24:51;;;;;;;15.93;12.90;;;;;;;6.06;86.84;100231.19;5114024;28;20190;-76
2021/12/18 09:27:20;;;;;;;19.50;11.97;;;;;;;6.05;86.55;100229.53;5114047;28;20222;-75
2021/12/18 09:29:46;;;;;;;10.70;9.67;;;;;;;6.09;85.97;100230.91;5114227;28;20196;-76
2021/12/18 09:32:13;;;;;;;11.23;9.23;;;;;;;6.07;86.02;100227.56;5114398;28;20252;-76
2021/12/18 09:34:40;;;;;;;9.37;8.43;;;;;;;6.10;85.63;100228.13;5114560;28;20264;-76
2021/12/18 09:37:07;;;;;;;9.30;8.27;;;;;;;6.21;85.54;100227.88;5113971;28;20618;-77
2021/12/18 09:39:34;;;;;;;9.13;8.20;;;;;;;6.25;85.85;100223.16;5112319;28;20194;-77
2021/12/18 09:42:01;;;;;;;7.77;7.07;;;;;;;6.28;85.91;100222.88;5112073;28;20251;-77
2021/12/18 09:44:30;;;;;;;9.20;8.40;;;;;;;6.51;85.99;100229.31;5111877;28;20205;-77
2021/12/18 09:46:59;;;;;;;9.20;8.47;;;;;;;6.53;85.45;100224.72;5111866;28;20569;-77
2021/12/18 09:49:26;;;;;;;8.50;7.87;;;;;;;6.70;85.57;100229.97;5111787;28;20655;-76
2021/12/18 09:51:54;;;;;;;9.47;8.67;;;;;;;6.80;84.88;100229.88;5111912;28;20969;-77
2021/12/18 09:54:23;;;;;;;8.60;7.43;;;;;;;6.69;83.86;100222.22;5113585;28;20243;-77
2021/12/18 09:56:50;;;;;;;10.87;9.10;;;;;;;6.84;84.24;100229.44;5114328;28;20190;-76
2021/12/18 09:59:16;;;;;;;8.30;7.60;;;;;;;6.86;83.58;100224.00;5114043;28;20199;-76
2021/12/18 10:01:45;;;;;;;7.80;7.10;;;;;;;6.91;82.67;100227.00;5114209;28;20194;-76
2021/12/18 10:04:28;;;;;;;13.30;10.27;;;;;;;6.88;82.28;100224.66;5113645;28;20294;-76
2021/12/18 10:06:56;;;;;;;10.77;9.70;;;;;;;6.89;82.04;100218.38;5114973;28;20194;-75
2021/12/18 10:09:37;;;;;;;21.10;12.70;;;;;;;6.89;82.05;100218.38;5113865;28;20670;-76
2021/12/18 10:12:13;;;;;;;16.93;12.63;;;;;;;6.82;82.25;100220.00;5093287;28;20224;-76
2021/12/18 10:14:41;;;;;;;14.60;10.07;;;;;;;6.69;81.46;100212.47;5093690;28;20209;-76
2021/12/18 10:17:21;;;;;;;9.30;8.40;;;;;;;6.56;80.84;100227.88;5093785;28;20269;-76
2021/12/18 10:19:47;;;;;;;11.67;8.47;;;;;;;6.62;80.24;100226.44;5093080;28;20711;-76
2021/12/18 10:22:14;;;;;;;11.30;9.43;;;;;;;6.51;80.58;100221.41;5093724;28;20282;-76
2021/12/18 10:24:43;;;;;;;12.40;10.93;;;;;;;6.41;81.78;100218.03;5093296;28;20256;-76
2021/12/18 10:27:20;;;;;;;15.97;13.30;;;;;;;6.54;82.30;100218.47;5093383;28;20696;-76
2021/12/18 10:29:48;;;;;;;11.07;10.03;;;;;;;6.77;81.89;100224.94;5092889;28;20739;-76
2021/12/18 10:32:18;;;;;;;10.73;9.67;;;;;;;6.92;79.89;100228.66;5093150;28;20585;-76
2021/12/18 10:34:52;;;;;;;12.47;10.37;;;;;;;7.03;80.42;100229.25;5093770;28;20211;-76
2021/12/18 10:37:22;;;;;;;12.60;10.93;;;;;;;6.95;80.65;100230.97;5092919;28;20207;-76
2021/12/18 10:40:01;;;;;;;8.87;8.07;;;;;;;6.88;79.83;100222.84;5092595;28;20652;-76
2021/12/18 10:42:29;;;;;;;9.10;8.00;;;;;;;6.88;80.18;100225.50;5093293;28;20636;-76
2021/12/18 10:45:21;;;;;;;10.57;9.67;;;;;;;7.00;79.05;100224.25;5093109;28;20199;-76
2021/12/18 10:47:56;;;;;;;11.57;10.47;;;;;;;7.11;78.82;100223.97;5077053;28;20191;-76
2021/12/18 10:50:33;;;;;;;8.70;8.10;;;;;;;7.22;78.88;100220.28;5092625;28;20183;-77
2021/12/18 10:53:04;;;;;;;6.40;5.90;;;;;;;7.29;79.70;100213.34;5092689;28;20248;-76
2021/12/18 10:55:41;;;;;;;5.80;5.50;;;;;;;7.33;78.82;100217.34;5092475;28;20264;-76
2021/12/18 10:58:09;;;;;;;7.83;7.10;;;;;;;7.40;76.97;100213.06;5092918;28;20214;-76
2021/12/18 11:00:41;;;;;;;10.40;9.43;;;;;;;7.22;76.51;100222.91;5092822;28;20191;-77
2021/12/18 11:03:18;;;;;;;10.40;9.30;;;;;;;6.94;77.28;100213.50;5093112;28;20187;-76
2021/12/18 11:06:02;;;;;;;11.40;10.30;;;;;;;6.82;77.07;100220.00;5092302;28;20661;-76
2021/12/18 11:08:29;;;;;;;9.87;9.07;;;;;;;6.63;77.80;100222.81;5092303;28;20643;-76
2021/12/18 11:13:38;;;;;;;15.97;13.40;;;;;;;6.34;78.83;100227.53;5102994;28;20190;-77
2021/12/18 11:13:48;;;;;;;10.30;9.20;;;;;;;5.99;81.74;100222.22;5113069;28;20293;-76
2021/12/18 11:16:16;;;;;;;9.97;8.93;;;;;;;5.87;83.07;100226.06;5112645;28;20202;-76
2021/12/18 11:18:45;;;;;;;21.37;17.10;;;;;;;5.74;83.58;100224.59;5112782;28;20216;-76
2021/12/18 11:21:12;;;;;;;9.30;8.50;;;;;;;5.58;84.48;100224.38;5112675;28;20251;-76
2021/12/18 11:23:44;;;;;;;6.70;6.07;;;;;;;5.65;85.13;100214.09;5112324;28;20191;-76
2021/12/18 11:26:13;;;;;;;8.30;7.40;;;;;;;5.77;86.09;100210.28;5112626;28;20293;-76
2021/12/18 11:28:44;;;;;;;15.53;11.97;;;;;;;5.82;86.05;100205.41;5112253;28;20714;-76
2021/12/18 11:31:12;;;;;;;8.87;8.17;;;;;;;5.75;85.99;100207.78;5112539;28;20555;-76
2021/12/18 11:33:39;;;;;;;7.40;6.80;;;;;;;5.81;87.46;100213.47;5112392;28;20243;-76
2021/12/18 11:36:08;;;;;;;8.60;7.57;;;;;;;5.68;86.59;100217.25;5112325;28;20262;-76
2021/12/18 11:38:38;;;;;;;8.93;8.23;;;;;;;5.69;87.62;100211.00;5112213;28;20190;-76
2021/12/18 11:41:05;;;;;;;8.10;7.57;;;;;;;5.76;88.63;100212.06;5112419;28;20194;-76
2021/12/18 11:43:35;;;;;;;6.67;6.27;;;;;;;5.88;88.95;100209.28;5112449;28;20609;-76
2021/12/18 11:46:04;;;;;;;6.20;5.80;;;;;;;5.89;88.73;100205.66;5112320;28;20721;-76
2021/12/18 11:48:55;;;;;;;7.73;6.87;;;;;;;5.82;89.23;100199.31;5112690;28;20245;-76
2021/12/18 11:51:24;;;;;;;5.80;5.40;;;;;;;5.84;88.77;100202.63;5111953;28;20197;-76
2021/12/18 11:53:51;;;;;;;6.63;6.03;;;;;;;5.88;88.73;100201.34;5112951;28;20190;-76
2021/12/18 11:56:17;;;;;;;7.83;7.33;;;;;;;5.91;88.54;100203.72;5111909;28;20191;-76
2021/12/18 11:58:46;;;;;;;7.87;7.27;;;;;;;5.93;88.32;100197.31;5112243;28;20194;-76